Time,TemperatureF,DewpointF,PressureIn,WindDirection,WindDirectionDegrees,WindSpeedMPH,WindSpeedGustMPH,Humidity,HourlyPrecipIn,Conditions,Clouds,dailyrainin,SolarRadiationWatts/m^2,SoftwareType,DateUTC
2013-06-13 00:02:00,47.4,44.6,29.99,South,180,4.6,4.6,90,0.00,CLR,,0.00,0.0,WeatherDisplay:10.37,2013-06-13 08:02:00,
2013-06-13 00:07:00,47.3,44.5,29.99,WSW,246,3.5,3.5,90,0.00,CLR,,0.00,0.0,WeatherDisplay:10.37,2013-06-13 08:07:00,
2013-06-13 00:09:00,47.2,44.4,29.99,SW,214,2.3,2.3,90,0.00,CLR,,0.00,0.0,WeatherDisplay:10.37,2013-06-13 08:09:00,
2013-06-13 00:14:00,47.1,44.3,29.99,South,185,3.5,3.5,90,0.00,CLR,,0.00,0.0,WeatherDisplay:10.37,2013-06-13 08:14:00,
2013-06-13 00:19:00,47.0,44.2,29.99,WNW,296,3.5,3.5,90,0.00,CLR,,0.00,0.0,WeatherDisplay:10.37,2013-06-13 08:19:00,
2013-06-13 00:24:00,46.9,44.4,29.99,SSE,157,2.3,2.3,91,0.00,CLR,,0.00,0.0,WeatherDisplay:10.37,2013-06-13 08:24:00,
2013-06-13 00:29:00,46.8,44.3,30.00,SSW,196,9.2,9.2,91,0.00,CLR,,0.00,0.0,WeatherDisplay:10.37,2013-06-13 08:29:00,
2013-06-13 00:34:00,46.8,44.3,29.99,SW,227,9.2,9.2,91,0.00,CLR,,0.00,0.0,WeatherDisplay:10.37,2013-06-13 08:34:00,
2013-06-13 00:39:00,46.7,44.2,29.99,SSW,207,6.9,6.9,91,0.00,CLR,,0.00,0.0,WeatherDisplay:10.37,2013-06-13 08:39:00,
2013-06-13 00:44:00,46.7,44.2,30.00,South,191,5.8,5.8,91,0.00,CLR,,0.00,0.0,WeatherDisplay:10.37,2013-06-13 08:44:00,
2013-06-13 00:49:00,46.6,44.1,30.00,SSW,211,2.3,2.3,91,0.00,CLR,,0.00,0.0,WeatherDisplay:10.37,2013-06-13 08:49:00,
2013-06-13 00:54:00,46.6,44.4,30.00,South,173,5.0,5.0,92,0.00,CLR,,0.00,0.0,WeatherDisplay:10.37,2013-06-13 08:54:00,
2013-06-13 00:59:00,46.6,44.4,30.00,SW,221,5.8,5.8,92,0.00,CLR,,0.00,0.0,WeatherDisplay:10.37,2013-06-13 08:59:00,
2013-06-13 01:04:00,46.5,44.3,30.00,SSW,198,6.9,6.9,92,0.00,CLR,,0.00,0.0,WeatherDisplay:10.37,2013-06-13 09:04:00,
2013-06-13 01:09:00,46.5,44.3,30.00,SSE,167,5.8,5.8,92,0.00,CLR,,0.00,0.0,WeatherDisplay:10.37,2013-06-13 09:09:00,
2013-06-13 01:14:00,46.4,44.2,30.00,SSW,205,3.5,3.5,92,0.00,CLR,,0.00,0.0,WeatherDisplay:10.37,2013-06-13 09:14:00,
2013-06-13 01:19:00,46.4,44.2,30.00,West,277,4.6,4.6,92,0.00,CLR,,0.00,0.0,WeatherDisplay:10.37,2013-06-13 09:19:00,
2013-06-13 01:24:00,46.4,44.2,30.00,South,186,2.3,2.3,92,0.00,CLR,,0.00,0.0,WeatherDisplay:10.37,2013-06-13 09:24:00,
2013-06-13 01:29:00,46.4,43.9,30.00,West,270,4.0,4.0,91,0.00,CLR,,0.00,0.0,WeatherDisplay:10.37,2013-06-13 09:29:00,
2013-06-13 01:34:00,46.2,43.7,30.00,SW,234,3.5,3.5,91,0.00,CLR,,0.00,0.0,WeatherDisplay:10.37,2013-06-13 09:34:00,
2013-06-13 01:39:00,46.2,44.0,30.00,SW,236,6.9,6.9,92,0.00,CLR,,0.00,0.0,WeatherDisplay:10.37,2013-06-13 09:39:00,
2013-06-13 01:44:00,46.2,44.0,30.00,SSW,213,4.6,4.6,92,0.00,CLR,,0.00,0.0,WeatherDisplay:10.37,2013-06-13 09:44:00,
2013-06-13 01:49:00,46.1,43.9,30.00,WSW,254,3.5,3.5,92,0.00,CLR,,0.00,0.0,WeatherDisplay:10.37,2013-06-13 09:49:00,
2013-06-13 01:54:00,46.1,43.9,30.00,WSW,254,2.3,2.3,92,0.00,CLR,,0.00,0.0,WeatherDisplay:10.37,2013-06-13 09:54:00,
2013-06-13 01:59:00,46.0,43.8,30.00,SW,234,2.3,2.3,92,0.00,CLR,,0.00,0.0,WeatherDisplay:10.37,2013-06-13 09:59:00,
2013-06-13 02:04:00,46.0,43.8,30.00,WSW,244,2.3,2.3,92,0.00,CLR,,0.00,0.0,WeatherDisplay:10.37,2013-06-13 10:04:00,
2013-06-13 02:09:00,46.0,43.8,30.00,SSW,203,1.2,1.2,92,0.00,CLR,,0.00,0.0,WeatherDisplay:10.37,2013-06-13 10:09:00,
2013-06-13 02:14:00,46.0,43.8,30.00,South,188,2.3,2.3,92,0.00,CLR,,0.00,0.0,WeatherDisplay:10.37,2013-06-13 10:14:00,
2013-06-13 02:19:00,46.0,44.1,30.00,West,261,3.5,3.5,93,0.00,CLR,,0.00,0.0,WeatherDisplay:10.37,2013-06-13 10:19:00,
2013-06-13 02:24:00,46.0,44.1,30.00,South,171,4.6,4.6,93,0.00,CLR,,0.00,0.0,WeatherDisplay:10.37,2013-06-13 10:24:00,
2013-06-13 02:29:00,46.0,44.1,30.00,SW,231,4.6,4.6,93,0.00,CLR,,0.00,0.0,WeatherDisplay:10.37,2013-06-13 10:29:00,
2013-06-13 02:34:00,46.1,44.2,30.00,South,173,3.5,3.5,93,0.00,CLR,,0.00,0.0,WeatherDisplay:10.37,2013-06-13 10:34:00,
2013-06-13 02:39:00,46.2,44.3,30.00,SW,227,3.0,3.0,93,0.00,CLR,,0.00,0.0,WeatherDisplay:10.37,2013-06-13 10:39:00,
2013-06-13 02:44:00,46.3,44.4,30.00,SW,222,3.5,3.5,93,0.00,CLR,,0.00,0.0,WeatherDisplay:10.37,2013-06-13 10:44:00,
2013-06-13 02:49:00,46.3,44.4,30.00,South,186,1.2,1.2,93,0.00,CLR,,0.00,0.0,WeatherDisplay:10.37,2013-06-13 10:49:00,
2013-06-13 02:54:00,46.3,44.4,30.00,SW,232,1.2,1.2,93,0.00,CLR,,0.00,0.0,WeatherDisplay:10.37,2013-06-13 10:54:00,
2013-06-13 02:59:00,46.1,44.2,30.00,SSE,153,3.5,3.5,93,0.00,CLR,,0.00,0.0,WeatherDisplay:10.37,2013-06-13 10:59:00,
2013-06-13 03:04:00,46.2,44.6,30.00,West,261,1.0,1.0,94,0.00,CLR,,0.00,0.0,WeatherDisplay:10.37,2013-06-13 11:04:00,
2013-06-13 03:09:00,46.2,44.6,30.00,WSW,250,3.0,3.0,94,0.00,CLR,,0.00,0.0,WeatherDisplay:10.37,2013-06-13 11:09:00,
2013-06-13 03:14:00,46.3,44.7,30.00,SSW,196,4.0,4.0,94,0.00,CLR,,0.00,0.0,WeatherDisplay:10.37,2013-06-13 11:14:00,
2013-06-13 03:19:00,46.3,44.7,30.01,West,267,3.0,3.0,94,0.00,CLR,,0.00,0.0,WeatherDisplay:10.37,2013-06-13 11:19:00,
2013-06-13 03:24:00,46.3,44.7,30.01,South,188,3.5,3.5,94,0.00,CLR,,0.00,0.0,WeatherDisplay:10.37,2013-06-13 11:24:00,
2013-06-13 03:29:00,46.3,44.7,30.01,West,280,3.5,3.5,94,0.00,CLR,,0.00,0.0,WeatherDisplay:10.37,2013-06-13 11:29:00,
2013-06-13 03:34:00,46.2,44.3,30.01,WNW,300,5.0,5.0,93,0.00,CLR,,0.00,0.0,WeatherDisplay:10.37,2013-06-13 11:34:00,
2013-06-13 03:39:00,46.0,44.1,30.01,WSW,244,3.0,3.0,93,0.00,CLR,,0.00,0.0,WeatherDisplay:10.37,2013-06-13 11:39:00,
2013-06-13 03:44:00,45.9,44.0,30.01,SSW,200,1.2,0.0,93,0.00,CLR,,0.00,0.0,WeatherDisplay:10.37,2013-06-13 11:44:00,
2013-06-13 03:49:00,45.7,43.8,30.01,NW,309,2.3,2.3,93,0.00,CLR,,0.00,0.0,WeatherDisplay:10.37,2013-06-13 11:49:00,
2013-06-13 03:54:00,45.6,43.7,30.01,West,267,2.3,2.3,93,0.00,CLR,,0.00,0.0,WeatherDisplay:10.37,2013-06-13 11:54:00,
2013-06-13 03:59:00,45.4,43.5,30.01,WSW,249,2.3,2.3,93,0.00,CLR,,0.00,0.0,WeatherDisplay:10.37,2013-06-13 11:59:00,
2013-06-13 04:04:00,45.2,43.3,30.01,WSW,257,3.5,3.5,93,0.00,CLR,,0.00,0.0,WeatherDisplay:10.37,2013-06-13 12:04:00,
2013-06-13 04:09:00,45.1,43.5,30.01,WSW,249,3.5,3.5,94,0.00,CLR,,0.00,0.0,WeatherDisplay:10.37,2013-06-13 12:09:00,
2013-06-13 04:14:00,45.1,43.5,30.01,WNW,294,3.5,3.5,94,0.00,CLR,,0.00,0.0,WeatherDisplay:10.37,2013-06-13 12:14:00,
2013-06-13 04:19:00,45.2,43.9,30.01,SSW,205,2.3,2.3,95,0.00,CLR,,0.00,0.0,WeatherDisplay:10.37,2013-06-13 12:19:00,
2013-06-13 04:24:00,45.2,43.9,30.01,WSW,242,4.6,4.6,95,0.00,CLR,,0.00,0.0,WeatherDisplay:10.37,2013-06-13 12:24:00,
2013-06-13 04:29:00,45.2,43.9,30.01,NNW,330,4.6,4.6,95,0.00,CLR,,0.00,0.0,WeatherDisplay:10.37,2013-06-13 12:29:00,
2013-06-13 04:34:00,45.2,43.9,30.01,WSW,246,5.8,5.8,95,0.00,CLR,,0.00,0.0,WeatherDisplay:10.37,2013-06-13 12:34:00,
2013-06-13 04:39:00,45.2,43.9,30.01,SSW,194,2.3,2.3,95,0.00,CLR,,0.00,5.0,WeatherDisplay:10.37,2013-06-13 12:39:00,
2013-06-13 04:44:00,45.1,43.8,30.01,SW,219,3.0,3.0,95,0.00,CLR,,0.00,5.0,WeatherDisplay:10.37,2013-06-13 12:44:00,
2013-06-13 04:49:00,45.1,43.8,30.01,SSW,202,3.5,3.5,95,0.00,CLR,,0.00,7.0,WeatherDisplay:10.37,2013-06-13 12:49:00,
2013-06-13 04:54:00,45.0,43.7,30.01,WSW,254,4.6,4.6,95,0.00,CLR,,0.00,9.0,WeatherDisplay:10.37,2013-06-13 12:54:00,
2013-06-13 04:59:00,45.0,43.7,30.01,WSW,242,3.5,3.5,95,0.00,CLR,,0.00,9.0,WeatherDisplay:10.37,2013-06-13 12:59:00,
2013-06-13 05:04:00,45.0,43.7,30.01,South,188,3.5,3.5,95,0.00,CLR,,0.00,11.0,WeatherDisplay:10.37,2013-06-13 13:04:00,
2013-06-13 05:09:00,45.0,43.7,30.01,SW,227,3.5,3.5,95,0.00,CLR,,0.00,12.0,WeatherDisplay:10.37,2013-06-13 13:09:00,
2013-06-13 05:14:00,45.0,43.7,30.01,SSW,207,2.3,2.3,95,0.00,CLR,,0.00,14.0,WeatherDisplay:10.37,2013-06-13 13:14:00,
2013-06-13 05:19:00,45.0,43.7,30.01,SSW,209,4.6,4.6,95,0.00,CLR,,0.00,16.0,WeatherDisplay:10.37,2013-06-13 13:19:00,
2013-06-13 05:24:00,45.1,43.8,30.01,West,275,5.8,5.8,95,0.00,CLR,,0.00,18.0,WeatherDisplay:10.37,2013-06-13 13:24:00,
2013-06-13 05:29:00,45.2,43.9,30.01,West,261,4.6,4.6,95,0.00,CLR,,0.00,19.0,WeatherDisplay:10.37,2013-06-13 13:29:00,
2013-06-13 05:34:00,45.2,43.9,30.01,West,281,6.9,6.9,95,0.00,CLR,,0.00,25.0,WeatherDisplay:10.37,2013-06-13 13:34:00,
2013-06-13 05:39:00,45.2,43.9,30.01,WSW,237,6.0,6.0,95,0.00,CLR,,0.00,23.0,WeatherDisplay:10.37,2013-06-13 13:39:00,
2013-06-13 05:44:00,45.2,43.9,30.01,SW,219,3.5,3.5,95,0.00,CLR,,0.00,25.0,WeatherDisplay:10.37,2013-06-13 13:44:00,
2013-06-13 05:49:00,45.2,43.9,30.01,East,88,3.5,3.5,95,0.00,CLR,,0.00,26.0,WeatherDisplay:10.37,2013-06-13 13:49:00,
2013-06-13 05:54:00,45.2,43.6,30.02,West,275,4.6,4.6,94,0.00,CLR,,0.00,28.0,WeatherDisplay:10.37,2013-06-13 13:54:00,
2013-06-13 05:59:00,45.2,43.6,30.02,SSW,195,6.9,6.9,94,0.00,CLR,,0.00,30.0,WeatherDisplay:10.37,2013-06-13 13:59:00,
2013-06-13 06:05:00,45.3,43.7,30.02,SSE,167,5.0,5.0,94,0.00,CLR,,0.00,33.0,WeatherDisplay:10.37,2013-06-13 14:05:00,
2013-06-13 06:10:00,45.4,43.8,30.02,SSW,211,3.5,3.5,94,0.00,CLR,,0.00,33.0,WeatherDisplay:10.37,2013-06-13 14:10:00,
2013-06-13 06:15:00,45.5,43.9,30.02,SSW,200,5.8,5.8,94,0.00,CLR,,0.00,90.0,WeatherDisplay:10.37,2013-06-13 14:15:00,
2013-06-13 06:20:00,45.7,44.1,30.02,SSW,212,5.0,5.0,94,0.00,CLR,,0.00,105.0,WeatherDisplay:10.37,2013-06-13 14:20:00,
2013-06-13 06:25:00,45.9,44.3,30.02,South,177,4.6,4.6,94,0.00,CLR,,0.00,132.0,WeatherDisplay:10.37,2013-06-13 14:25:00,
2013-06-13 06:30:00,46.1,44.5,30.02,SSW,194,8.1,8.1,94,0.00,CLR,,0.00,125.0,WeatherDisplay:10.37,2013-06-13 14:30:00,
2013-06-13 06:35:00,46.1,44.2,30.02,West,269,4.0,4.0,93,0.00,CLR,,0.00,107.0,WeatherDisplay:10.37,2013-06-13 14:35:00,
2013-06-13 06:40:00,46.1,44.2,30.02,WSW,248,3.5,3.5,93,0.00,CLR,,0.00,109.0,WeatherDisplay:10.37,2013-06-13 14:40:00,
2013-06-13 06:45:00,46.0,44.1,30.02,SSE,164,4.6,4.6,93,0.00,CLR,,0.00,79.0,WeatherDisplay:10.37,2013-06-13 14:45:00,
2013-06-13 06:50:00,45.9,44.3,30.02,West,270,5.8,5.8,94,0.00,CLR,,0.00,91.0,WeatherDisplay:10.37,2013-06-13 14:50:00,
2013-06-13 06:55:00,45.9,44.3,30.02,WSW,250,5.8,5.8,94,0.00,CLR,,0.00,79.0,WeatherDisplay:10.37,2013-06-13 14:55:00,
2013-06-13 07:00:00,45.8,43.9,30.02,West,275,3.5,3.5,93,0.00,CLR,,0.00,114.0,WeatherDisplay:10.37,2013-06-13 15:00:00,
2013-06-13 07:05:00,45.7,44.1,30.02,SW,236,3.5,3.8,94,0.00,CLR,,0.00,95.0,WeatherDisplay:10.37,2013-06-13 15:05:00,
2013-06-13 07:10:00,45.6,43.7,30.02,South,173,9.2,9.2,93,0.00,CLR,,0.00,90.0,WeatherDisplay:10.37,2013-06-13 15:10:00,
2013-06-13 07:15:00,45.4,43.5,30.03,NW,311,3.0,3.2,93,0.00,CLR,,0.00,105.0,WeatherDisplay:10.37,2013-06-13 15:15:00,
2013-06-13 07:20:00,45.3,43.7,30.02,WNW,289,6.9,6.9,94,0.00,CLR,,0.00,116.0,WeatherDisplay:10.37,2013-06-13 15:20:00,
2013-06-13 07:25:00,45.4,43.8,30.02,SSW,197,8.1,8.1,94,0.00,CLR,,0.00,83.0,WeatherDisplay:10.37,2013-06-13 15:25:00,
2013-06-13 07:30:00,45.4,43.8,30.02,West,279,1.2,1.3,94,0.00,CLR,,0.00,146.0,WeatherDisplay:10.37,2013-06-13 15:30:00,
2013-06-13 07:35:00,45.5,43.9,30.03,WSW,257,5.8,5.8,94,0.00,SCT,,0.00,137.0,WeatherDisplay:10.37,2013-06-13 15:35:00,
2013-06-13 07:40:00,45.4,43.8,30.03,SW,225,6.9,6.9,94,0.00,SCT,,0.00,100.0,WeatherDisplay:10.37,2013-06-13 15:40:00,
2013-06-13 07:45:00,45.4,43.8,30.03,SSW,205,4.6,4.6,94,0.00,SCT,,0.00,197.0,WeatherDisplay:10.37,2013-06-13 15:45:00,
2013-06-13 07:50:00,45.5,43.9,30.03,West,269,3.5,3.5,94,0.00,SCT,,0.00,211.0,WeatherDisplay:10.37,2013-06-13 15:50:00,
2013-06-13 07:55:00,45.7,44.1,30.03,WSW,246,4.6,4.6,94,0.00,SCT,,0.00,105.0,WeatherDisplay:10.37,2013-06-13 15:55:00,
2013-06-13 08:00:00,45.7,44.1,30.03,NW,304,8.1,8.1,94,0.00,SCT,,0.00,185.0,WeatherDisplay:10.37,2013-06-13 16:00:00,
2013-06-13 08:05:00,45.8,44.2,30.03,SSW,200,5.0,5.0,94,0.00,SCT,,0.00,162.0,WeatherDisplay:10.37,2013-06-13 16:05:00,
2013-06-13 08:10:00,45.9,44.3,30.03,SSW,196,5.8,5.8,94,0.00,SCT,,0.00,167.0,WeatherDisplay:10.37,2013-06-13 16:10:00,
2013-06-13 08:15:00,45.9,44.0,30.03,South,169,4.6,4.6,93,0.00,SCT,,0.00,204.0,WeatherDisplay:10.37,2013-06-13 16:15:00,
2013-06-13 08:20:00,46.1,44.5,30.03,West,273,5.8,5.8,94,0.00,SCT,,0.00,260.0,WeatherDisplay:10.37,2013-06-13 16:20:00,
2013-06-13 08:25:00,46.3,44.4,30.03,West,261,3.5,3.5,93,0.00,SCT,,0.00,192.0,WeatherDisplay:10.37,2013-06-13 16:25:00,
2013-06-13 08:30:00,46.4,44.5,30.03,NNW,348,5.8,5.8,93,0.00,SCT,,0.00,162.0,WeatherDisplay:10.37,2013-06-13 16:30:00,
2013-06-13 08:35:00,46.7,44.8,30.03,SSW,202,4.0,4.0,93,0.00,SCT,,0.00,276.0,WeatherDisplay:10.37,2013-06-13 16:35:00,
2013-06-13 08:40:00,46.9,45.0,30.03,SSW,200,5.0,5.0,93,0.00,SCT,,0.00,197.0,WeatherDisplay:10.37,2013-06-13 16:40:00,
2013-06-13 08:45:00,46.9,44.7,30.03,SW,221,5.8,5.8,92,0.00,SCT,,0.00,323.0,WeatherDisplay:10.37,2013-06-13 16:45:00,
2013-06-13 08:50:00,46.9,44.7,30.04,West,260,10.4,10.4,92,0.00,SCT,,0.00,283.0,WeatherDisplay:10.37,2013-06-13 16:50:00,
2013-06-13 08:55:00,46.9,44.7,30.04,SSW,198,5.8,5.8,92,0.00,SCT,,0.00,297.0,WeatherDisplay:10.37,2013-06-13 16:55:00,
2013-06-13 09:00:00,47.0,44.8,30.04,SSW,200,6.9,6.9,92,0.00,SCT,,0.00,171.0,WeatherDisplay:10.37,2013-06-13 17:00:00,
2013-06-13 09:05:00,47.0,44.5,30.04,South,177,4.6,4.6,91,0.00,OVC,,0.00,253.0,WeatherDisplay:10.37,2013-06-13 17:05:00,
2013-06-13 09:10:00,47.0,44.5,30.04,SW,233,3.5,3.5,91,0.00,OVC,,0.00,274.0,WeatherDisplay:10.37,2013-06-13 17:10:00,
2013-06-13 09:15:00,47.2,44.7,30.04,SSW,198,5.0,5.0,91,0.00,OVC,,0.00,234.0,WeatherDisplay:10.37,2013-06-13 17:15:00,
2013-06-13 09:20:00,47.2,44.7,30.04,ESE,118,5.8,5.8,91,0.00,OVC,,0.00,295.0,WeatherDisplay:10.37,2013-06-13 17:20:00,
2013-06-13 09:25:00,47.1,44.6,30.04,SSW,209,2.3,2.3,91,0.00,OVC,,0.00,285.0,WeatherDisplay:10.37,2013-06-13 17:25:00,
2013-06-13 09:30:00,47.1,44.6,30.04,WSW,257,4.6,4.6,91,0.00,OVC,,0.00,274.0,WeatherDisplay:10.37,2013-06-13 17:30:00,
2013-06-13 09:35:00,47.1,44.3,30.04,SW,219,8.1,8.1,90,0.00,OVC,,0.00,446.0,WeatherDisplay:10.37,2013-06-13 17:35:00,
2013-06-13 09:40:00,47.3,44.8,30.04,NW,316,3.5,3.5,91,0.00,OVC,,0.00,279.0,WeatherDisplay:10.37,2013-06-13 17:40:00,
2013-06-13 09:45:00,47.3,44.5,30.04,NW,305,5.8,5.8,90,0.00,OVC,,0.00,304.0,WeatherDisplay:10.37,2013-06-13 17:45:00,
2013-06-13 09:50:00,47.4,44.6,30.04,West,273,3.5,3.5,90,0.00,OVC,,0.00,269.0,WeatherDisplay:10.37,2013-06-13 17:50:00,
2013-06-13 09:55:00,47.4,44.6,30.04,SW,223,2.3,2.3,90,0.00,OVC,,0.00,313.0,WeatherDisplay:10.37,2013-06-13 17:55:00,
2013-06-13 10:00:00,47.4,44.6,30.05,SSE,161,8.1,8.1,90,0.00,OVC,,0.00,445.0,WeatherDisplay:10.37,2013-06-13 18:00:00,
2013-06-13 10:05:00,47.6,44.8,30.04,West,276,3.5,3.5,90,0.00,OVC,,0.00,306.0,WeatherDisplay:10.37,2013-06-13 18:05:00,
2013-06-13 10:10:00,47.6,44.5,30.05,South,179,5.8,5.8,89,0.00,OVC,,0.00,315.0,WeatherDisplay:10.37,2013-06-13 18:10:00,
2013-06-13 10:15:00,47.6,44.8,30.05,NW,324,5.0,5.0,90,0.00,OVC,,0.00,294.0,WeatherDisplay:10.37,2013-06-13 18:15:00,
2013-06-13 10:20:00,47.6,44.5,30.05,SSE,167,3.5,3.5,89,0.00,OVC,,0.00,378.0,WeatherDisplay:10.37,2013-06-13 18:20:00,
2013-06-13 10:25:00,47.6,44.8,30.05,South,170,3.5,3.5,90,0.00,OVC,,0.00,318.0,WeatherDisplay:10.37,2013-06-13 18:25:00,
2013-06-13 10:30:00,47.6,44.8,30.05,SW,232,3.5,3.5,90,0.00,OVC,,0.00,366.0,WeatherDisplay:10.37,2013-06-13 18:30:00,
2013-06-13 10:35:00,47.6,44.8,30.05,WNW,287,3.5,3.5,90,0.00,OVC,,0.00,295.0,WeatherDisplay:10.37,2013-06-13 18:35:00,
2013-06-13 10:40:00,47.7,44.9,30.06,SE,132,4.6,4.6,90,0.00,OVC,,0.00,366.0,WeatherDisplay:10.37,2013-06-13 18:40:00,
2013-06-13 10:45:00,47.7,44.6,30.06,SSW,211,5.8,5.8,89,0.00,OVC,,0.00,288.0,WeatherDisplay:10.37,2013-06-13 18:45:00,
2013-06-13 10:50:00,47.6,44.5,30.06,SSW,209,5.8,5.8,89,0.00,OVC,,0.00,512.0,WeatherDisplay:10.37,2013-06-13 18:50:00,
2013-06-13 10:55:00,47.6,44.8,30.06,South,184,3.5,3.5,90,0.00,OVC,,0.00,345.0,WeatherDisplay:10.37,2013-06-13 18:55:00,
2013-06-13 11:00:00,47.7,44.6,30.06,WNW,284,3.5,3.5,89,0.00,OVC,,0.00,322.0,WeatherDisplay:10.37,2013-06-13 19:00:00,
2013-06-13 11:05:00,47.8,44.7,30.06,SSW,196,9.2,9.2,89,0.00,OVC,,0.00,334.0,WeatherDisplay:10.37,2013-06-13 19:05:00,
2013-06-13 11:10:00,47.6,44.8,30.06,WSW,247,4.6,4.6,90,0.00,OVC,,0.00,396.0,WeatherDisplay:10.37,2013-06-13 19:10:00,
2013-06-13 11:15:00,47.7,44.9,30.06,NW,321,5.8,5.8,90,0.00,OVC,,0.00,399.0,WeatherDisplay:10.37,2013-06-13 19:15:00,
2013-06-13 11:20:00,47.8,44.7,30.06,WNW,290,3.5,3.5,89,0.00,OVC,,0.00,427.0,WeatherDisplay:10.37,2013-06-13 19:20:00,
2013-06-13 11:25:00,47.9,44.5,30.06,SSE,150,5.8,5.8,88,0.00,OVC,,0.00,320.0,WeatherDisplay:10.37,2013-06-13 19:25:00,
2013-06-13 11:30:00,47.8,44.4,30.06,WNW,296,2.3,2.3,88,0.00,OVC,,0.00,301.0,WeatherDisplay:10.37,2013-06-13 19:30:00,
2013-06-13 11:35:00,47.8,44.7,30.06,South,190,3.5,3.5,89,0.00,OVC,,0.00,357.0,WeatherDisplay:10.37,2013-06-13 19:35:00,
2013-06-13 11:40:00,48.0,44.9,30.06,South,187,8.1,8.1,89,0.00,OVC,,0.00,438.0,WeatherDisplay:10.37,2013-06-13 19:40:00,
2013-06-13 11:45:00,48.2,44.8,30.07,NW,304,4.6,4.6,88,0.00,OVC,,0.00,415.0,WeatherDisplay:10.37,2013-06-13 19:45:00,
2013-06-13 11:50:00,48.3,44.9,30.07,WSW,238,4.6,4.6,88,0.00,OVC,,0.00,524.0,WeatherDisplay:10.37,2013-06-13 19:50:00,
2013-06-13 11:55:00,48.3,44.9,30.07,WSW,256,13.8,13.8,88,0.00,OVC,,0.00,387.0,WeatherDisplay:10.37,2013-06-13 19:55:00,
2013-06-13 12:00:00,48.5,45.1,30.07,NNW,332,2.3,2.3,88,0.00,OVC,,0.00,376.0,WeatherDisplay:10.37,2013-06-13 20:00:00,
2013-06-13 12:05:00,48.6,45.2,30.07,WNW,288,5.0,5.0,88,0.00,OVC,,0.00,420.0,WeatherDisplay:10.37,2013-06-13 20:05:00,
2013-06-13 12:10:00,48.6,44.9,30.07,WNW,287,4.6,4.6,87,0.00,OVC,,0.00,422.0,WeatherDisplay:10.37,2013-06-13 20:10:00,
2013-06-13 12:15:00,48.6,44.9,30.07,WSW,255,5.0,5.0,87,0.00,OVC,,0.00,431.0,WeatherDisplay:10.37,2013-06-13 20:15:00,
2013-06-13 12:20:00,48.6,44.9,30.06,SSW,200,6.9,6.9,87,0.00,OVC,,0.00,392.0,WeatherDisplay:10.37,2013-06-13 20:20:00,
2013-06-13 12:25:00,48.7,45.0,30.07,West,268,3.5,3.5,87,0.00,OVC,,0.00,527.0,WeatherDisplay:10.37,2013-06-13 20:25:00,
2013-06-13 12:30:00,48.8,44.8,30.07,SSW,202,4.6,4.6,86,0.00,OVC,,0.00,468.0,WeatherDisplay:10.37,2013-06-13 20:30:00,
2013-06-13 12:35:00,49.0,45.3,30.07,West,277,4.6,4.6,87,0.00,OVC,,0.00,371.0,WeatherDisplay:10.37,2013-06-13 20:35:00,
2013-06-13 12:40:00,49.1,45.4,30.08,West,274,3.5,3.5,87,0.00,OVC,,0.00,434.0,WeatherDisplay:10.37,2013-06-13 20:40:00,
2013-06-13 12:45:00,49.4,45.4,30.08,WSW,257,6.9,6.9,86,0.00,OVC,,0.00,512.0,WeatherDisplay:10.37,2013-06-13 20:45:00,
2013-06-13 12:50:00,49.4,45.4,30.08,South,184,3.5,3.5,86,0.00,OVC,,0.00,392.0,WeatherDisplay:10.37,2013-06-13 20:50:00,
2013-06-13 12:55:00,49.3,45.3,30.08,South,178,5.8,5.8,86,0.00,OVC,,0.00,401.0,WeatherDisplay:10.37,2013-06-13 20:55:00,
2013-06-13 13:00:00,49.3,45.3,30.08,WSW,240,3.5,3.5,86,0.00,OVC,,0.00,411.0,WeatherDisplay:10.37,2013-06-13 21:00:00,
2013-06-13 13:05:00,49.3,45.3,30.08,NW,304,10.4,10.4,86,0.00,OVC,,0.00,394.0,WeatherDisplay:10.37,2013-06-13 21:05:00,
2013-06-13 13:10:00,49.2,45.2,30.08,WSW,254,6.9,6.9,86,0.00,OVC,,0.00,413.0,WeatherDisplay:10.37,2013-06-13 21:10:00,
2013-06-13 13:15:00,49.2,45.5,30.08,West,269,5.8,5.8,87,0.00,OVC,,0.00,490.0,WeatherDisplay:10.37,2013-06-13 21:15:00,
2013-06-13 13:20:00,49.3,45.3,30.08,WNW,282,5.0,5.0,86,0.00,OVC,,0.00,431.0,WeatherDisplay:10.37,2013-06-13 21:20:00,
2013-06-13 13:25:00,49.3,45.3,30.08,SSE,164,3.5,3.5,86,0.00,OVC,,0.00,526.0,WeatherDisplay:10.37,2013-06-13 21:25:00,
2013-06-13 13:30:00,49.8,46.1,30.08,SSW,207,5.0,5.0,87,0.00,OVC,,0.00,700.0,WeatherDisplay:10.37,2013-06-13 21:30:00,
2013-06-13 13:35:00,50.2,45.6,30.08,WSW,250,4.0,4.0,84,0.00,OVC,,0.00,446.0,WeatherDisplay:10.37,2013-06-13 21:35:00,
2013-06-13 13:40:00,50.1,45.5,30.09,West,263,4.6,4.6,84,0.00,OVC,,0.00,455.0,WeatherDisplay:10.37,2013-06-13 21:40:00,
2013-06-13 13:45:00,50.1,45.5,30.09,West,270,3.5,3.5,84,0.00,OVC,,0.00,445.0,WeatherDisplay:10.37,2013-06-13 21:45:00,
2013-06-13 13:50:00,49.9,45.6,30.09,WNW,298,3.5,3.5,85,0.00,OVC,,0.00,306.0,WeatherDisplay:10.37,2013-06-13 21:50:00,
2013-06-13 13:55:00,49.8,45.5,30.09,SSW,200,4.0,4.0,85,0.00,OVC,,0.00,415.0,WeatherDisplay:10.37,2013-06-13 21:55:00,
2013-06-13 14:00:00,49.8,45.5,30.09,SE,128,8.1,8.1,85,0.00,OVC,,0.00,621.0,WeatherDisplay:10.37,2013-06-13 22:00:00,
2013-06-13 14:05:00,49.9,45.6,30.09,SSW,202,6.9,6.9,85,0.00,OVC,,0.00,557.0,WeatherDisplay:10.37,2013-06-13 22:05:00,
2013-06-13 14:10:00,50.3,45.6,30.09,WSW,245,5.8,5.8,84,0.00,OVC,,0.00,487.0,WeatherDisplay:10.37,2013-06-13 22:10:00,
2013-06-13 14:15:00,50.4,45.7,30.09,SW,234,5.8,5.8,84,0.00,OVC,,0.00,555.0,WeatherDisplay:10.37,2013-06-13 22:15:00,
2013-06-13 14:20:00,50.4,45.7,30.09,SSW,203,4.6,4.6,84,0.00,OVC,,0.00,712.0,WeatherDisplay:10.37,2013-06-13 22:20:00,
2013-06-13 14:25:00,50.3,45.6,30.09,West,271,3.5,3.5,84,0.00,OVC,,0.00,749.0,WeatherDisplay:10.37,2013-06-13 22:25:00,
2013-06-13 14:30:00,50.1,45.5,30.09,West,261,4.6,4.6,84,0.00,OVC,,0.00,499.0,WeatherDisplay:10.37,2013-06-13 22:30:00,
2013-06-13 14:35:00,50.1,45.5,30.09,SE,143,3.5,3.5,84,0.00,BKN,,0.00,446.0,WeatherDisplay:10.37,2013-06-13 22:35:00,
2013-06-13 14:40:00,50.2,45.6,30.09,SSE,167,3.5,3.5,84,0.00,BKN,,0.00,649.0,WeatherDisplay:10.37,2013-06-13 22:40:00,
2013-06-13 14:45:00,50.2,45.6,30.10,SW,228,5.8,5.8,84,0.00,BKN,,0.00,482.0,WeatherDisplay:10.37,2013-06-13 22:45:00,
2013-06-13 14:50:00,50.3,45.6,30.10,WNW,296,3.5,3.5,84,0.00,BKN,,0.00,410.0,WeatherDisplay:10.37,2013-06-13 22:50:00,
2013-06-13 14:55:00,50.2,45.9,30.10,SSE,163,3.5,3.5,85,0.00,BKN,,0.00,513.0,WeatherDisplay:10.37,2013-06-13 22:55:00,
2013-06-13 15:00:00,50.2,45.9,30.10,SW,236,5.8,5.8,85,0.00,BKN,,0.00,483.0,WeatherDisplay:10.37,2013-06-13 23:00:00,
2013-06-13 15:05:00,50.2,45.9,30.09,WSW,239,3.5,3.5,85,0.00,BKN,,0.00,605.0,WeatherDisplay:10.37,2013-06-13 23:05:00,
2013-06-13 15:10:00,50.3,46.0,30.09,West,281,3.5,3.5,85,0.00,BKN,,0.00,536.0,WeatherDisplay:10.37,2013-06-13 23:10:00,
2013-06-13 15:16:00,50.6,45.9,30.09,WSW,238,4.6,4.6,84,0.00,BKN,,0.00,536.0,WeatherDisplay:10.37,2013-06-13 23:16:00,
2013-06-13 15:21:00,50.7,46.0,30.09,WSW,246,5.8,5.8,84,0.00,BKN,,0.00,508.0,WeatherDisplay:10.37,2013-06-13 23:21:00,
2013-06-13 15:26:00,51.0,46.3,30.10,South,179,4.6,4.6,84,0.00,BKN,,0.00,485.0,WeatherDisplay:10.37,2013-06-13 23:26:00,
2013-06-13 15:31:00,51.1,46.1,30.09,NNW,330,4.6,4.6,83,0.00,BKN,,0.00,503.0,WeatherDisplay:10.37,2013-06-13 23:31:00,
2013-06-13 15:36:00,51.1,46.4,30.09,WNW,297,3.5,3.6,84,0.00,BKN,,0.00,466.0,WeatherDisplay:10.37,2013-06-13 23:36:00,
2013-06-13 15:41:00,51.1,45.8,30.10,SW,216,3.5,3.5,82,0.00,BKN,,0.00,468.0,WeatherDisplay:10.37,2013-06-13 23:41:00,
2013-06-13 15:46:00,50.9,45.9,30.10,SW,234,8.1,8.1,83,0.00,BKN,,0.00,454.0,WeatherDisplay:10.37,2013-06-13 23:46:00,
2013-06-13 15:51:00,50.7,46.0,30.10,SSW,200,5.0,5.0,84,0.00,BKN,,0.00,489.0,WeatherDisplay:10.37,2013-06-13 23:51:00,
2013-06-13 15:56:00,50.8,46.1,30.10,North,9,3.5,3.5,84,0.00,BKN,,0.00,504.0,WeatherDisplay:10.37,2013-06-13 23:56:00,
2013-06-13 16:01:00,50.8,46.5,30.10,SW,225,5.0,5.0,85,0.00,BKN,,0.00,677.0,WeatherDisplay:10.37,2013-06-14 00:01:00,
2013-06-13 16:06:00,50.7,46.0,30.10,NW,304,3.5,3.5,84,0.00,SCT,,0.00,455.0,WeatherDisplay:10.37,2013-06-14 00:06:00,
2013-06-13 16:11:00,50.6,45.9,30.10,South,171,3.5,3.5,84,0.00,SCT,,0.00,515.0,WeatherDisplay:10.37,2013-06-14 00:11:00,
2013-06-13 16:16:00,50.7,45.7,30.10,WSW,247,6.9,6.9,83,0.00,SCT,,0.00,452.0,WeatherDisplay:10.37,2013-06-14 00:16:00,
2013-06-13 16:21:00,50.7,46.0,30.10,SSE,147,3.5,3.5,84,0.00,SCT,,0.00,436.0,WeatherDisplay:10.37,2013-06-14 00:21:00,
2013-06-13 16:26:00,50.8,46.1,30.10,SE,146,6.9,6.9,84,0.00,SCT,,0.00,496.0,WeatherDisplay:10.37,2013-06-14 00:26:00,
2013-06-13 16:31:00,50.8,46.1,30.10,SW,236,5.8,5.8,84,0.00,SCT,,0.00,492.0,WeatherDisplay:10.37,2013-06-14 00:31:00,
2013-06-13 16:36:00,50.7,46.0,30.11,West,268,8.1,8.1,84,0.00,SCT,,0.00,473.0,WeatherDisplay:10.37,2013-06-14 00:36:00,
2013-06-13 16:41:00,50.5,45.8,30.11,West,270,6.9,6.9,84,0.00,SCT,,0.00,343.0,WeatherDisplay:10.37,2013-06-14 00:41:00,
2013-06-13 16:46:00,50.4,46.1,30.11,SW,236,8.1,8.1,85,0.00,SCT,,0.00,510.0,WeatherDisplay:10.37,2013-06-14 00:46:00,
2013-06-13 16:51:00,50.5,46.2,30.11,NNW,346,3.5,3.5,85,0.00,SCT,,0.00,566.0,WeatherDisplay:10.37,2013-06-14 00:51:00,
2013-06-13 16:56:00,50.7,46.0,30.11,SSW,212,5.8,5.8,84,0.00,SCT,,0.00,378.0,WeatherDisplay:10.37,2013-06-14 00:56:00,
2013-06-13 17:01:00,50.4,45.7,30.11,SW,234,8.1,8.1,84,0.00,SCT,,0.00,336.0,WeatherDisplay:10.37,2013-06-14 01:01:00,
2013-06-13 17:06:00,50.2,45.9,30.11,North,355,5.8,5.8,85,0.00,SCT,,0.00,483.0,WeatherDisplay:10.37,2013-06-14 01:06:00,
2013-06-13 17:11:00,50.2,45.9,30.11,SW,219,3.5,3.5,85,0.00,SCT,,0.00,424.0,WeatherDisplay:10.37,2013-06-14 01:11:00,
2013-06-13 17:16:00,50.2,45.9,30.11,North,10,3.5,3.5,85,0.00,SCT,,0.00,459.0,WeatherDisplay:10.37,2013-06-14 01:16:00,
2013-06-13 17:21:00,50.2,45.9,30.11,WSW,248,3.5,3.5,85,0.00,SCT,,0.00,406.0,WeatherDisplay:10.37,2013-06-14 01:21:00,
2013-06-13 17:26:00,50.2,45.9,30.11,SSW,200,8.1,8.1,85,0.00,SCT,,0.00,496.0,WeatherDisplay:10.37,2013-06-14 01:26:00,
2013-06-13 17:31:00,50.2,45.6,30.11,SE,130,4.6,4.6,84,0.00,BKN,,0.00,357.0,WeatherDisplay:10.37,2013-06-14 01:31:00,
2013-06-13 17:36:00,49.9,45.6,30.12,South,187,3.5,3.5,85,0.00,BKN,,0.00,371.0,WeatherDisplay:10.37,2013-06-14 01:36:00,
2013-06-13 17:41:00,49.9,45.6,30.12,WNW,300,5.8,5.8,85,0.00,BKN,,0.00,341.0,WeatherDisplay:10.37,2013-06-14 01:41:00,
2013-06-13 17:46:00,50.0,45.7,30.12,NW,306,5.8,5.8,85,0.00,BKN,,0.00,390.0,WeatherDisplay:10.37,2013-06-14 01:46:00,
2013-06-13 17:51:00,49.9,45.6,30.12,NW,304,5.8,5.8,85,0.00,BKN,,0.00,332.0,WeatherDisplay:10.37,2013-06-14 01:51:00,
2013-06-13 17:56:00,49.8,45.5,30.12,West,263,5.8,5.8,85,0.00,BKN,,0.00,292.0,WeatherDisplay:10.37,2013-06-14 01:56:00,
2013-06-13 18:01:00,49.6,45.3,30.13,NNW,335,5.8,5.8,85,0.00,OVC,,0.00,283.0,WeatherDisplay:10.37,2013-06-14 02:01:00,
2013-06-13 18:06:00,49.5,45.5,30.13,SW,232,3.5,3.5,86,0.00,OVC,,0.00,339.0,WeatherDisplay:10.37,2013-06-14 02:06:00,
2013-06-13 18:11:00,49.6,45.6,30.13,SW,218,6.9,6.9,86,0.00,OVC,,0.00,239.0,WeatherDisplay:10.37,2013-06-14 02:11:00,
2013-06-13 18:16:00,49.4,45.1,30.13,SSW,208,4.6,4.6,85,0.00,OVC,,0.00,380.0,WeatherDisplay:10.37,2013-06-14 02:16:00,
2013-06-13 18:21:00,49.1,45.1,30.13,West,270,6.9,6.9,86,0.00,OVC,,0.00,292.0,WeatherDisplay:10.37,2013-06-14 02:21:00,
2013-06-13 18:26:00,49.0,45.3,30.13,West,269,3.5,3.5,87,0.00,OVC,,0.00,276.0,WeatherDisplay:10.37,2013-06-14 02:26:00,
2013-06-13 18:31:00,49.1,45.1,30.13,NW,306,8.1,8.1,86,0.00,OVC,,0.00,283.0,WeatherDisplay:10.37,2013-06-14 02:31:00,
2013-06-13 18:36:00,48.9,44.9,30.13,SW,220,9.2,9.2,86,0.00,OVC,,0.00,229.0,WeatherDisplay:10.37,2013-06-14 02:36:00,
2013-06-13 18:41:00,48.7,45.0,30.13,South,189,4.6,4.6,87,0.00,OVC,,0.00,211.0,WeatherDisplay:10.37,2013-06-14 02:41:00,
2013-06-13 18:46:00,48.6,44.9,30.14,SW,214,3.5,3.5,87,0.00,OVC,,0.00,192.0,WeatherDisplay:10.37,2013-06-14 02:46:00,
2013-06-13 18:51:00,48.6,45.2,30.14,WSW,238,3.5,3.5,88,0.00,OVC,,0.00,213.0,WeatherDisplay:10.37,2013-06-14 02:51:00,
2013-06-13 18:56:00,48.6,45.2,30.14,West,272,5.8,5.8,88,0.00,OVC,,0.00,227.0,WeatherDisplay:10.37,2013-06-14 02:56:00,
2013-06-13 19:01:00,48.6,45.2,30.14,SSE,167,3.0,3.0,88,0.00,OVC,,0.00,236.0,WeatherDisplay:10.37,2013-06-14 03:01:00,
2013-06-13 19:06:00,48.5,45.1,30.14,South,184,6.9,6.9,88,0.00,OVC,,0.00,244.0,WeatherDisplay:10.37,2013-06-14 03:06:00,
2013-06-13 19:11:00,48.6,45.2,30.14,South,180,4.6,4.6,88,0.00,OVC,,0.00,213.0,WeatherDisplay:10.37,2013-06-14 03:11:00,
2013-06-13 19:16:00,48.8,45.4,30.14,SSW,213,3.5,3.5,88,0.00,OVC,,0.00,258.0,WeatherDisplay:10.37,2013-06-14 03:16:00,
2013-06-13 19:21:00,48.9,45.5,30.14,WNW,284,6.0,6.0,88,0.00,OVC,,0.00,272.0,WeatherDisplay:10.37,2013-06-14 03:21:00,
2013-06-13 19:26:00,49.0,45.3,30.14,WNW,284,6.9,6.9,87,0.00,OVC,,0.00,232.0,WeatherDisplay:10.37,2013-06-14 03:26:00,
2013-06-13 19:31:00,49.1,45.7,30.14,West,269,5.8,5.8,88,0.00,OVC,,0.00,262.0,WeatherDisplay:10.37,2013-06-14 03:31:00,
2013-06-13 19:36:00,49.2,45.8,30.15,NW,323,3.5,3.5,88,0.00,OVC,,0.00,209.0,WeatherDisplay:10.37,2013-06-14 03:36:00,
2013-06-13 19:41:00,49.4,45.7,30.15,NW,311,5.8,5.8,87,0.00,OVC,,0.00,197.0,WeatherDisplay:10.37,2013-06-14 03:41:00,
2013-06-13 19:46:00,49.4,45.7,30.15,SSW,192,6.9,6.9,87,0.00,OVC,,0.00,169.0,WeatherDisplay:10.37,2013-06-14 03:46:00,
2013-06-13 19:51:00,49.4,46.0,30.15,SSW,196,4.6,4.6,88,0.00,OVC,,0.00,165.0,WeatherDisplay:10.37,2013-06-14 03:51:00,
2013-06-13 19:56:00,49.4,45.7,30.15,West,275,4.6,4.6,87,0.00,OVC,,0.00,114.0,WeatherDisplay:10.37,2013-06-14 03:56:00,
2013-06-13 20:01:00,49.4,45.7,30.15,SSW,211,6.9,6.9,87,0.00,SCT,,0.00,72.0,WeatherDisplay:10.37,2013-06-14 04:01:00,
2013-06-13 20:06:00,49.3,45.6,30.14,SSW,206,3.5,3.5,87,0.00,SCT,,0.00,130.0,WeatherDisplay:10.37,2013-06-14 04:06:00,
2013-06-13 20:11:00,49.3,45.6,30.15,South,169,4.6,4.6,87,0.00,SCT,,0.00,155.0,WeatherDisplay:10.37,2013-06-14 04:11:00,
2013-06-13 20:16:00,49.3,45.6,30.15,SSW,209,8.1,8.1,87,0.00,SCT,,0.00,195.0,WeatherDisplay:10.37,2013-06-14 04:16:00,
2013-06-13 20:21:00,49.3,45.6,30.16,WSW,246,6.9,6.9,87,0.00,SCT,,0.00,116.0,WeatherDisplay:10.37,2013-06-14 04:21:00,
2013-06-13 20:26:00,49.3,45.9,30.16,SSW,211,5.8,5.8,88,0.00,SCT,,0.00,176.0,WeatherDisplay:10.37,2013-06-14 04:26:00,
2013-06-13 20:31:00,49.3,45.9,30.16,SSW,211,5.8,5.8,88,0.00,SCT,,0.00,169.0,WeatherDisplay:10.37,2013-06-14 04:31:00,
2013-06-13 20:36:00,49.3,45.9,30.16,South,173,6.9,6.9,88,0.00,SCT,,0.00,144.0,WeatherDisplay:10.37,2013-06-14 04:36:00,
2013-06-13 20:41:00,49.2,45.8,30.16,SSW,193,6.9,6.9,88,0.00,SCT,,0.00,137.0,WeatherDisplay:10.37,2013-06-14 04:41:00,
2013-06-13 20:46:00,49.1,45.7,30.16,SSE,160,6.9,6.9,88,0.00,SCT,,0.00,121.0,WeatherDisplay:10.37,2013-06-14 04:46:00,
2013-06-13 20:51:00,49.0,45.9,30.16,South,180,6.9,6.9,89,0.00,SCT,,0.00,109.0,WeatherDisplay:10.37,2013-06-14 04:51:00,
2013-06-13 20:56:00,49.0,45.9,30.16,West,264,7.0,7.0,89,0.00,SCT,,0.00,98.0,WeatherDisplay:10.37,2013-06-14 04:56:00,
2013-06-13 21:01:00,49.0,45.9,30.16,SSW,200,3.5,3.5,89,0.00,SCT,,0.00,84.0,WeatherDisplay:10.37,2013-06-14 05:01:00,
2013-06-13 21:06:00,49.0,45.9,30.16,West,267,6.9,6.9,89,0.00,SCT,,0.00,97.0,WeatherDisplay:10.37,2013-06-14 05:06:00,
2013-06-13 21:11:00,48.8,45.7,30.17,WSW,246,9.2,9.2,89,0.00,SCT,,0.00,90.0,WeatherDisplay:10.37,2013-06-14 05:11:00,
2013-06-13 21:16:00,48.8,45.7,30.17,South,171,7.0,7.0,89,0.00,SCT,,0.00,91.0,WeatherDisplay:10.37,2013-06-14 05:16:00,
2013-06-13 21:21:00,48.7,45.6,30.17,SSW,202,10.4,10.4,89,0.00,SCT,,0.00,72.0,WeatherDisplay:10.37,2013-06-14 05:21:00,
2013-06-13 21:26:00,48.6,45.5,30.17,SSW,207,3.0,3.0,89,0.00,SCT,,0.00,72.0,WeatherDisplay:10.37,2013-06-14 05:26:00,
2013-06-13 21:31:00,48.5,45.7,30.17,West,259,9.2,9.2,90,0.00,SCT,,0.00,69.0,WeatherDisplay:10.37,2013-06-14 05:31:00,
2013-06-13 21:36:00,48.4,45.6,30.17,South,181,4.6,4.6,90,0.00,SCT,,0.00,76.0,WeatherDisplay:10.37,2013-06-14 05:36:00,
2013-06-13 21:41:00,48.3,45.5,30.17,SSW,203,4.0,4.0,90,0.00,SCT,,0.00,63.0,WeatherDisplay:10.37,2013-06-14 05:41:00,
2013-06-13 21:46:00,48.2,45.7,30.17,SSW,213,4.6,4.6,91,0.00,SCT,,0.00,58.0,WeatherDisplay:10.37,2013-06-14 05:46:00,
2013-06-13 21:51:00,48.2,45.7,30.17,SSW,207,9.2,9.2,91,0.00,SCT,,0.00,79.0,WeatherDisplay:10.37,2013-06-14 05:51:00,
2013-06-13 21:56:00,48.3,45.5,30.17,SE,144,3.5,3.5,90,0.00,SCT,,0.00,74.0,WeatherDisplay:10.37,2013-06-14 05:56:00,
2013-06-13 22:01:00,48.4,45.9,30.17,South,184,5.8,5.8,91,0.00,SCT,,0.00,65.0,WeatherDisplay:10.37,2013-06-14 06:01:00,
2013-06-13 22:06:00,48.5,45.7,30.17,SW,223,3.5,3.5,90,0.00,SCT,,0.00,54.0,WeatherDisplay:10.37,2013-06-14 06:06:00,
2013-06-13 22:11:00,48.6,45.8,30.17,West,266,4.0,4.0,90,0.00,SCT,,0.00,49.0,WeatherDisplay:10.37,2013-06-14 06:11:00,
2013-06-13 22:16:00,48.5,45.7,30.17,SW,231,6.9,6.9,90,0.00,SCT,,0.00,32.0,WeatherDisplay:10.37,2013-06-14 06:16:00,
2013-06-13 22:21:00,48.2,45.4,30.18,South,171,6.9,6.9,90,0.00,SCT,,0.00,23.0,WeatherDisplay:10.37,2013-06-14 06:21:00,
2013-06-13 22:26:00,48.0,45.5,30.18,SSW,202,6.0,6.0,91,0.00,SCT,,0.00,19.0,WeatherDisplay:10.37,2013-06-14 06:26:00,
2013-06-13 22:31:00,47.8,45.3,30.18,SSW,208,3.0,3.0,91,0.00,SCT,,0.00,18.0,WeatherDisplay:10.37,2013-06-14 06:31:00,
2013-06-13 22:36:00,47.6,45.1,30.18,SSE,150,3.5,3.5,91,0.00,SCT,,0.00,18.0,WeatherDisplay:10.37,2013-06-14 06:36:00,
2013-06-13 22:41:00,47.4,45.2,30.18,SSW,210,10.4,10.4,92,0.00,SCT,,0.00,21.0,WeatherDisplay:10.37,2013-06-14 06:41:00,
2013-06-13 22:46:00,47.4,45.2,30.18,SW,224,9.0,9.0,92,0.00,SCT,,0.00,23.0,WeatherDisplay:10.37,2013-06-14 06:46:00,
2013-06-13 22:51:00,47.3,45.1,30.18,South,189,5.8,5.8,92,0.00,SCT,,0.00,19.0,WeatherDisplay:10.37,2013-06-14 06:51:00,
2013-06-13 22:56:00,47.3,45.4,30.18,NW,306,9.2,9.2,93,0.00,SCT,,0.00,18.0,WeatherDisplay:10.37,2013-06-14 06:56:00,
2013-06-13 23:01:00,47.2,45.0,30.18,SSE,162,3.5,3.5,92,0.00,SCT,,0.00,14.0,WeatherDisplay:10.37,2013-06-14 07:01:00,
2013-06-13 23:06:00,47.1,45.2,30.18,West,266,8.1,8.1,93,0.00,SCT,,0.00,14.0,WeatherDisplay:10.37,2013-06-14 07:06:00,
2013-06-13 23:11:00,47.1,45.2,30.18,SW,227,5.8,5.8,93,0.00,SCT,,0.00,12.0,WeatherDisplay:10.37,2013-06-14 07:11:00,
2013-06-13 23:16:00,47.0,45.1,30.18,SW,218,6.9,6.9,93,0.00,SCT,,0.00,11.0,WeatherDisplay:10.37,2013-06-14 07:16:00,
2013-06-13 23:21:00,47.0,45.1,30.18,SSE,165,5.8,5.8,93,0.00,SCT,,0.00,7.0,WeatherDisplay:10.37,2013-06-14 07:21:00,
2013-06-13 23:26:00,46.9,45.0,30.18,WSW,240,6.9,6.9,93,0.00,SCT,,0.00,7.0,WeatherDisplay:10.37,2013-06-14 07:26:00,
2013-06-13 23:31:00,46.9,45.0,30.18,SSE,165,5.8,5.8,93,0.00,SCT,,0.00,5.0,WeatherDisplay:10.37,2013-06-14 07:31:00,
2013-06-13 23:36:00,47.0,45.4,30.18,SW,225,4.6,4.6,94,0.00,SCT,,0.00,5.0,WeatherDisplay:10.37,2013-06-14 07:36:00,
2013-06-13 23:41:00,47.0,45.1,30.18,East,101,6.9,6.9,93,0.00,SCT,,0.00,5.0,WeatherDisplay:10.37,2013-06-14 07:41:00,
2013-06-13 23:46:00,46.9,45.3,30.18,SSW,207,4.0,4.0,94,0.00,SCT,,0.00,0.0,WeatherDisplay:10.37,2013-06-14 07:46:00,
2013-06-13 23:51:00,47.0,45.4,30.18,SW,229,6.9,6.9,94,0.00,SCT,,0.00,0.0,WeatherDisplay:10.37,2013-06-14 07:51:00,
2013-06-13 23:56:00,47.0,45.4,30.19,South,188,7.0,7.0,94,0.00,SCT,,0.00,0.0,WeatherDisplay:10.37,2013-06-14 07:56:00,